Time;durP1;ratioP1;P1;durP2;ratioP2;P2;SDS_P1;SDS_P2;PMS_P1;PMS_P2;Temp;Humidity;BMP_temperature;BMP_pressure;BME280_temperature;BME280_humidity;BME280_pressure;Samples;Min_cycle;Max_cycle;Signal;HPM_P1;HPM_P2
2022/06/25 00:01:13;;;;;;;2.60;2.40;;;;;;;18.74;100.00;100550.59;20804560;28;20045;-76
2022/06/25 00:21:37;;;;;;;2.80;2.60;;;;;;;18.74;100.00;100557.84;20802628;28;20529;-76
2022/06/25 00:31:39;;;;;;;2.35;2.15;;;;;;;18.74;100.00;100557.84;20802023;28;20061;-76
2022/06/25 00:41:41;;;;;;;2.60;2.40;;;;;;;18.74;100.00;100560.53;20799147;28;20049;-76
2022/06/25 00:51:45;;;;;;;2.95;2.72;;;;;;;18.72;100.00;100557.97;20872436;28;20045;-76
2022/06/25 01:01:47;;;;;;;2.50;2.30;;;;;;;18.73;100.00;100558.84;20864050;28;20041;-76
2022/06/25 01:11:49;;;;;;;2.45;2.25;;;;;;;18.72;100.00;100570.63;20881109;28;20152;-76
2022/06/25 01:21:51;;;;;;;2.90;2.70;;;;;;;18.72;100.00;100576.03;20896391;28;20405;-76
2022/06/25 01:31:52;;;;;;;2.55;2.35;;;;;;;18.70;100.00;100587.81;20879187;28;20056;-76
2022/06/25 01:41:57;;;;;;;2.40;2.20;;;;;;;18.70;100.00;100590.50;20826955;28;20097;-76
2022/06/25 01:51:58;;;;;;;2.55;2.35;;;;;;;18.71;100.00;100599.44;20797450;28;20037;-76
2022/06/25 02:02:00;;;;;;;2.15;2.05;;;;;;;18.71;100.00;100604.81;20798032;28;20049;-76
2022/06/25 02:12:03;;;;;;;2.42;2.22;;;;;;;18.69;100.00;100610.38;20795658;28;20049;-76
2022/06/25 02:22:05;;;;;;;2.30;2.10;;;;;;;18.69;100.00;100623.84;20778671;28;20053;-76
2022/06/25 02:32:07;;;;;;;2.08;1.92;;;;;;;18.68;100.00;100615.91;20805825;28;20053;-76
2022/06/25 02:42:09;;;;;;;2.28;2.08;;;;;;;18.68;100.00;100635.66;20792530;28;20498;-76
2022/06/25 02:52:11;;;;;;;2.65;2.20;;;;;;;18.64;100.00;100631.53;20808418;28;20073;-76
2022/06/25 03:02:14;;;;;;;2.00;1.90;;;;;;;18.63;100.00;100629.84;20807522;28;20327;-76
2022/06/25 03:12:18;;;;;;;2.20;2.00;;;;;;;18.67;100.00;100652.81;20791102;28;20065;-76
2022/06/25 03:22:30;;;;;;;2.05;1.90;;;;;;;18.67;100.00;100650.13;20830159;28;20052;-76
2022/06/25 03:32:31;;;;;;;1.80;1.70;;;;;;;18.66;100.00;100651.13;20821104;28;20472;-76
2022/06/25 03:42:54;;;;;;;1.80;1.70;;;;;;;18.66;100.00;100653.81;20804587;28;20055;-76
2022/06/25 03:52:55;;;;;;;2.05;1.92;;;;;;;18.66;100.00;100666.44;20792251;28;20093;-76
2022/06/25 04:02:57;;;;;;;2.17;2.00;;;;;;;18.66;100.00;100682.63;20869770;28;20048;-76
2022/06/25 04:13:04;;;;;;;2.38;2.17;;;;;;;18.65;100.00;100684.47;20802826;28;20041;-76
2022/06/25 04:23:08;;;;;;;1.85;1.75;;;;;;;18.66;100.00;100688.88;20814840;28;20037;-76
2022/06/25 04:33:09;;;;;;;1.80;1.70;;;;;;;18.64;100.00;100682.78;20811368;28;20045;-76
2022/06/25 04:43:25;;;;;;;2.10;1.90;;;;;;;18.57;100.00;100676.28;20833446;28;20053;-76
2022/06/25 04:53:27;;;;;;;1.80;1.70;;;;;;;18.59;100.00;100693.16;20776345;28;20502;-76
2022/06/25 05:03:28;;;;;;;1.95;1.75;;;;;;;18.66;100.00;100699.66;20813000;28;20128;-76
2022/06/25 05:13:43;;;;;;;2.15;1.83;;;;;;;18.67;100.00;100714.84;20790194;28;20057;-75
2022/06/25 05:23:45;;;;;;;2.60;1.80;;;;;;;18.70;100.00;100724.47;20801411;28;20041;-77
2022/06/25 05:33:47;;;;;;;4.50;1.60;;;;;;;18.76;100.00;100725.75;20853573;28;20639;-76
2022/06/25 05:43:48;;;;;;;2.10;1.90;;;;;;;18.78;100.00;100738.09;20779371;28;20405;-77
2022/06/25 05:53:50;;;;;;;2.58;1.48;;;;;;;18.80;100.00;100746.03;20830149;28;20456;-76
2022/06/25 06:03:51;;;;;;;1.90;1.70;;;;;;;18.79;100.00;100755.09;20859203;28;20049;-76
2022/06/25 06:13:53;;;;;;;3.13;1.73;;;;;;;18.81;100.00;100774.69;20879979;28;20059;-76
2022/06/25 06:23:55;;;;;;;2.38;1.73;;;;;;;18.61;100.00;100758.56;20791557;28;20055;-77
2022/06/25 06:33:57;;;;;;;6.85;2.58;;;;;;;18.58;100.00;100769.63;20782555;28;20107;-76
2022/06/25 06:43:58;;;;;;;4.53;3.03;;;;;;;18.80;100.00;100799.97;20860816;28;20400;-76
2022/06/25 06:54:00;;;;;;;5.07;2.95;;;;;;;18.78;100.00;100804.66;20851410;28;20057;-76
2022/06/25 07:04:01;;;;;;;4.03;2.40;;;;;;;18.78;100.00;100812.75;20884878;28;20093;-75
2022/06/25 07:14:04;;;;;;;4.53;2.85;;;;;;;18.76;100.00;100822.81;20884353;28;20107;-75
2022/06/25 07:24:06;;;;;;;3.70;2.35;;;;;;;18.88;100.00;100835.16;20867823;28;20398;-75
2022/06/25 07:34:07;;;;;;;5.25;2.30;;;;;;;19.03;100.00;100837.44;20877260;28;20045;-75
2022/06/25 07:44:09;;;;;;;3.22;2.00;;;;;;;19.12;100.00;100829.31;20866612;28;20131;-76
2022/06/25 07:54:10;;;;;;;7.13;3.22;;;;;;;19.18;100.00;100830.56;20868698;28;20053;-76
2022/06/25 08:04:12;;;;;;;3.65;1.98;;;;;;;19.28;100.00;100836.78;20862903;28;20049;-77
2022/06/25 08:14:14;;;;;;;3.03;2.38;;;;;;;19.31;100.00;100829.38;20868941;28;20079;-77
2022/06/25 08:24:15;;;;;;;2.97;1.98;;;;;;;19.34;100.00;100848.84;20775937;28;20504;-76
2022/06/25 08:34:18;;;;;;;3.17;2.03;;;;;;;19.33;100.00;100857.09;20793642;28;20056;-77
2022/06/25 08:44:19;;;;;;;2.70;1.80;;;;;;;19.31;100.00;100864.47;20774311;28;20445;-77
2022/06/25 08:54:22;;;;;;;2.95;2.00;;;;;;;19.26;100.00;100871.16;20846413;28;20506;-76
2022/06/25 09:04:23;;;;;;;2.30;1.70;;;;;;;19.23;100.00;100860.66;20830829;28;20041;-77
2022/06/25 09:14:29;;;;;;;2.95;1.60;;;;;;;19.18;100.00;100857.56;20777284;28;20061;-77
2022/06/25 09:24:46;;;;;;;3.95;1.40;;;;;;;19.15;100.00;100847.06;20804875;28;20081;-76
2022/06/25 09:34:47;;;;;;;2.67;1.30;;;;;;;19.12;100.00;100850.06;20768742;28;20058;-76
2022/06/25 09:44:59;;;;;;;2.00;1.10;;;;;;;19.10;100.00;100862.84;20786178;28;20046;-76
2022/06/25 09:55:00;;;;;;;2.90;1.35;;;;;;;18.91;100.00;100834.84;20786801;28;20181;-75
2022/06/25 10:05:03;;;;;;;2.00;1.10;;;;;;;18.79;99.84;100819.84;20792622;28;20155;-76
2022/06/25 10:15:06;;;;;;;1.50;1.40;;;;;;;19.02;99.99;100863.56;20792280;28;20056;-76
2022/06/25 10:25:19;;;;;;;1.40;1.30;;;;;;;19.01;99.80;100861.03;20801792;28;20523;-75
2022/06/25 10:35:35;;;;;;;1.55;1.10;;;;;;;18.84;99.65;100828.34;20763950;28;20154;-76
2022/06/25 10:45:46;;;;;;;1.50;1.30;;;;;;;18.96;99.61;100858.72;20786357;28;20053;-76
2022/06/25 10:55:48;;;;;;;1.45;1.00;;;;;;;18.96;99.58;100858.72;20857207;28;20520;-76
2022/06/25 11:05:49;;;;;;;2.38;1.20;;;;;;;18.94;99.48;100856.16;20781805;28;20578;-76
2022/06/25 11:15:51;;;;;;;1.58;1.17;;;;;;;18.92;99.46;100850.03;20853921;28;20099;-76
2022/06/25 11:36:15;;;;;;;1.02;0.93;;;;;;;18.92;99.16;100857.31;20767056;28;20494;-75
2022/06/25 11:46:19;;;;;;;2.45;1.10;;;;;;;18.84;100.00;100834.59;20781357;28;20067;-76
2022/06/25 11:56:21;;;;;;;1.42;1.30;;;;;;;18.82;100.00;100827.63;20824907;28;20049;-76
2022/06/25 12:06:23;;;;;;;2.83;1.35;;;;;;;19.07;100.00;100866.66;20779328;28;20053;-76
2022/06/25 12:16:41;;;;;;;3.45;1.15;;;;;;;19.09;100.00;100864.69;20778568;28;20050;-76
2022/06/25 12:26:51;;;;;;;2.00;1.00;;;;;;;19.17;100.00;100876.59;20832761;28;20041;-75
2022/06/25 12:36:53;;;;;;;1.30;1.02;;;;;;;19.02;100.00;100849.22;20807099;28;20279;-76
2022/06/25 12:47:23;;;;;;;1.90;1.25;;;;;;;19.24;100.00;100896.63;20850491;28;20624;-76
2022/06/25 12:57:32;;;;;;;1.17;1.00;;;;;;;19.25;100.00;100901.84;20889912;28;20059;-76
2022/06/25 13:07:34;;;;;;;0.85;0.82;;;;;;;19.27;100.00;100907.97;20859042;28;20503;-76
2022/06/25 13:17:36;;;;;;;2.20;0.90;;;;;;;19.21;100.00;100905.84;20873941;28;20107;-76
2022/06/25 13:27:40;;;;;;;1.08;0.82;;;;;;;19.28;100.00;100912.34;20890669;28;20045;-76
2022/06/25 13:37:41;;;;;;;1.15;1.00;;;;;;;19.24;100.00;100902.03;20845767;28;20098;-76
2022/06/25 13:47:46;;;;;;;1.83;1.00;;;;;;;19.31;100.00;100922.03;20785497;28;20072;-76
2022/06/25 13:57:48;;;;;;;2.40;1.33;;;;;;;19.29;100.00;100915.94;20766153;28;20103;-75
2022/06/25 14:07:49;;;;;;;2.63;1.20;;;;;;;19.27;100.00;100907.97;20768627;28;20426;-75
2022/06/25 14:17:51;;;;;;;3.10;1.08;;;;;;;19.25;100.00;100915.34;20770562;28;20046;-75
2022/06/25 14:27:55;;;;;;;1.95;1.00;;;;;;;19.10;100.00;100876.34;20778111;28;20045;-75
2022/06/25 14:48:17;;;;;;;1.27;1.15;;;;;;;19.09;100.00;100878.16;20864274;28;20659;-75
2022/06/25 14:58:18;;;;;;;1.52;0.85;;;;;;;18.98;100.00;100852.19;20793788;28;20095;-75
2022/06/25 15:08:20;;;;;;;0.77;0.77;;;;;;;19.19;100.00;100880.00;20766977;28;20041;-77
2022/06/25 15:18:21;;;;;;;1.60;1.00;;;;;;;19.18;100.00;100881.84;20786165;28;20120;-76
2022/06/25 15:28:23;;;;;;;1.58;0.90;;;;;;;19.17;100.00;100869.34;20796280;28;20049;-77
2022/06/25 15:38:28;;;;;;;0.98;0.88;;;;;;;19.07;100.00;100846.94;20783988;28;20053;-75
2022/06/25 15:48:30;;;;;;;1.75;0.70;;;;;;;19.04;100.00;100831.06;20794861;28;20041;-76
2022/06/25 15:59:27;;;;;;;1.00;0.77;;;;;;;19.12;100.00;100848.19;20765577;28;20102;-76
2022/06/25 16:08:53;;;;;;;1.27;1.05;;;;;;;19.10;100.00;100852.88;20824828;28;20482;-76
2022/06/25 16:18:56;;;;;;;1.05;0.85;;;;;;;19.10;100.00;100843.94;20787455;28;20041;-77
2022/06/25 16:28:58;;;;;;;1.20;0.90;;;;;;;19.10;100.00;100835.84;20783032;28;20042;-76
2022/06/25 16:39:00;;;;;;;0.85;0.77;;;;;;;19.09;100.00;100843.09;20792770;28;20044;-76
2022/06/25 16:49:10;;;;;;;1.17;0.95;;;;;;;19.09;100.00;100842.25;20844331;28;20555;-76
2022/06/25 16:59:15;;;;;;;1.33;0.93;;;;;;;19.09;100.00;100839.56;20836330;28;20114;-77
2022/06/25 17:09:16;;;;;;;1.57;1.20;;;;;;;18.96;100.00;100816.38;20767845;28;20115;-76
2022/06/25 17:19:19;;;;;;;1.23;1.00;;;;;;;19.07;100.00;100828.88;20776210;28;20049;-76
2022/06/25 17:29:21;;;;;;;1.13;0.95;;;;;;;19.07;100.00;100825.34;20897847;28;20404;-76
2022/06/25 17:39:25;;;;;;;;;;;;;;;19.07;100.00;100839.69;20914149;28;20041;-76
2022/06/25 17:49:27;;;;;;;5.50;1.40;;;;;;;19.06;100.00;100839.84;20894817;28;19943;-77
2022/06/25 17:59:28;;;;;;;1.70;1.25;;;;;;;19.05;100.00;100841.69;20810356;28;20099;-77
2022/06/25 18:09:30;;;;;;;1.95;1.15;;;;;;;19.06;100.00;100842.53;20796813;28;20041;-77
2022/06/25 18:19:32;;;;;;;1.90;1.30;;;;;;;19.08;100.00;100840.56;20787711;28;20057;-78
2022/06/25 18:29:33;;;;;;;2.75;1.15;;;;;;;19.10;100.00;100833.16;20794727;28;20576;-76
2022/06/25 18:39:35;;;;;;;2.90;1.42;;;;;;;19.14;100.00;100845.34;20791526;28;20631;-76
2022/06/25 18:49:36;;;;;;;2.95;1.55;;;;;;;19.15;100.00;100848.91;20794140;28;20459;-76
2022/06/25 18:59:38;;;;;;;2.78;1.60;;;;;;;19.15;100.00;100857.84;20806713;28;20399;-76
2022/06/25 19:09:39;;;;;;;4.10;2.08;;;;;;;19.15;100.00;100865.94;20799055;28;20079;-76
2022/06/25 19:19:41;;;;;;;5.97;2.97;;;;;;;19.18;100.00;100879.16;20807327;28;20049;-76
2022/06/25 19:29:43;;;;;;;8.10;3.58;;;;;;;19.18;100.00;100886.38;20823483;28;20406;-76
2022/06/25 19:39:44;;;;;;;9.43;4.57;;;;;;;19.18;100.00;100895.34;20887703;28;20048;-75
2022/06/25 19:49:45;;;;;;;8.85;5.38;;;;;;;19.17;100.00;100892.78;20942864;28;20401;-76
2022/06/25 19:59:47;;;;;;;11.15;5.43;;;;;;;19.15;100.00;100894.78;20932022;28;20493;-76
2022/06/25 20:09:49;;;;;;;8.00;5.03;;;;;;;19.13;100.00;100901.16;20937364;28;20566;-76
2022/06/25 20:19:51;;;;;;;8.85;4.85;;;;;;;18.95;100.00;100863.25;20888396;28;20052;-76
2022/06/25 20:29:53;;;;;;;7.25;5.28;;;;;;;19.10;100.00;100882.56;20834076;28;20401;-76
2022/06/25 20:39:55;;;;;;;8.82;4.40;;;;;;;19.09;100.00;100890.81;20805883;28;20049;-76
2022/06/25 20:49:56;;;;;;;7.70;4.40;;;;;;;19.06;100.00;100881.16;20776547;28;20402;-76
2022/06/25 20:59:58;;;;;;;6.85;4.28;;;;;;;19.06;100.00;100877.63;20804002;28;20049;-76
2022/06/25 21:09:59;;;;;;;7.95;3.65;;;;;;;19.05;100.00;100889.41;20788321;28;20049;-76
2022/06/25 21:20:01;;;;;;;7.38;3.50;;;;;;;19.04;100.00;100883.16;20761187;28;20045;-76
2022/06/25 21:30:03;;;;;;;4.03;3.40;;;;;;;19.02;100.00;100878.91;20796535;28;20103;-76
2022/06/25 21:40:06;;;;;;;5.72;3.38;;;;;;;19.03;100.00;100869.81;20799793;28;20494;-75
2022/06/25 21:50:09;;;;;;;5.20;3.70;;;;;;;19.01;100.00;100861.84;20766876;28;20045;-76
2022/06/25 22:00:15;;;;;;;5.88;3.38;;;;;;;19.00;100.00;100854.75;20807264;28;20045;-76
2022/06/25 22:10:17;;;;;;;5.15;3.58;;;;;;;18.99;100.00;100864.69;20877352;28;20180;-76
2022/06/25 22:30:39;;;;;;;4.65;4.00;;;;;;;18.87;100.00;100855.03;20797827;28;20050;-76
2022/06/25 22:40:41;;;;;;;6.70;3.42;;;;;;;18.96;100.00;100861.41;20787244;28;20050;-76
2022/06/25 22:50:43;;;;;;;3.90;3.50;;;;;;;18.95;100.00;100843.53;20907639;28;20398;-76
2022/06/25 23:01:05;;;;;;;5.07;3.88;;;;;;;18.94;100.00;100850.75;20779934;28;20054;-76
2022/06/25 23:11:06;;;;;;;6.38;3.95;;;;;;;18.93;100.00;100843.66;20809809;28;20052;-76
2022/06/25 23:21:08;;;;;;;4.72;4.05;;;;;;;18.93;100.00;100845.50;20769942;28;20053;-76
2022/06/25 23:31:10;;;;;;;5.05;3.83;;;;;;;18.91;100.00;100832.16;20748356;28;20049;-76
2022/06/25 23:41:12;;;;;;;4.57;3.58;;;;;;;18.90;100.00;100832.31;20811262;28;20060;-76
2022/06/25 23:51:13;;;;;;;3.58;3.28;;;;;;;18.10;100.00;100693.22;20782471;28;20077;-76
